Fdl, Wisconsin
Current Conditions -  °F | °C
As of 5:53 PM on Thursday 27 Nov 2014 (Local Time) from KFLD Reporting Station
Clear Clear  
Wind Chill:   Ceiling: Unl
Heat Index: 11°   Visibility: 10mi
Dew Point:   Wind: 6mph
Humidity: 67%   Direction: 290°WNW
Pressure: 30.39"   Gusts: NA
Location:  43.7436°N, 88.3886°W
Report Text: KFLD 272353Z AUTO 29005KT 10SM CLR M12/M17 A3039 RMK AO2 SLP307 60000 T11171167 11072 21122 51011
Loading
Personal Weather Stations






























Interactive Weather Map New forecast layout! Learn more

10-Day Weather Forecast

Advertisements
Track Severe Weather on mobile